Time;durP1;ratioP1;P1;durP2;ratioP2;P2;SDS_P1;SDS_P2;PMS_P1;PMS_P2;Temp;Humidity;BMP_temperature;BMP_pressure;BME280_temperature;BME280_humidity;BME280_pressure;Samples;Min_cycle;Max_cycle;Signal;HPM_P1;HPM_P2
2021/03/28 00:02:36;;;;;;;0.30;0.20;;;;;;;6.79;100.00;101499.41;5060778;28;20446;-55
2021/03/28 00:05:22;;;;;;;0.30;0.20;;;;;;;6.54;100.00;101501.88;5048113;28;20495;-55
2021/03/28 00:07:56;;;;;;;0.30;0.20;;;;;;;6.63;100.00;101502.84;5058515;28;20497;-55
2021/03/28 00:10:34;;;;;;;0.30;0.20;;;;;;;6.75;100.00;101513.50;5060580;28;20439;-55
2021/03/28 00:13:26;;;;;;;0.30;0.20;;;;;;;6.76;100.00;101513.50;5065672;28;20450;-57
2021/03/28 00:15:55;;;;;;;0.30;0.20;;;;;;;6.77;100.00;101515.25;5064589;28;20944;-57
2021/03/28 00:19:04;;;;;;;0.30;0.20;;;;;;;6.81;100.00;101519.69;5063718;28;20985;-57
2021/03/28 00:21:47;;;;;;;0.30;0.20;;;;;;;6.76;100.00;101510.84;5052090;28;20859;-57
2021/03/28 00:24:31;;;;;;;0.30;0.20;;;;;;;6.79;100.00;101512.63;5058653;28;20499;-57
2021/03/28 00:27:04;;;;;;;0.30;0.20;;;;;;;6.69;100.00;101519.59;5058624;28;20447;-57
2021/03/28 00:29:47;;;;;;;0.30;0.20;;;;;;;6.64;100.00;101513.41;5064952;28;20475;-57
2021/03/28 00:32:19;;;;;;;0.30;0.20;;;;;;;6.65;100.00;101520.47;5069740;28;20442;-57
2021/03/28 00:34:51;;;;;;;0.30;0.10;;;;;;;6.84;100.00;101524.09;5068072;28;20473;-57
2021/03/28 00:37:26;;;;;;;0.30;0.20;;;;;;;6.70;100.00;101529.28;5062504;28;20472;-57
2021/03/28 00:40:12;;;;;;;0.30;0.20;;;;;;;6.69;100.00;101524.88;5062234;28;20552;-57
2021/03/28 00:42:47;;;;;;;0.30;0.20;;;;;;;6.61;100.00;101518.69;5065725;28;20442;-57
2021/03/28 00:45:45;;;;;;;0.30;0.20;;;;;;;6.50;100.00;101517.69;5068768;28;20521;-57
2021/03/28 00:48:14;;;;;;;0.30;0.10;;;;;;;6.46;100.00;101521.19;5065197;28;20513;-57
2021/03/28 00:51:19;;;;;;;0.30;0.20;;;;;;;6.33;100.00;101514.94;5065176;28;20524;-57
2021/03/28 00:53:53;;;;;;;0.30;0.20;;;;;;;6.29;100.00;101513.13;5065061;28;20527;-57
2021/03/28 00:56:37;;;;;;;0.30;0.20;;;;;;;6.53;100.00;101507.16;5067062;28;20464;-57
2021/03/28 00:59:13;;;;;;;0.30;0.20;;;;;;;6.39;100.00;101503.53;5068194;28;20536;-55
2021/03/28 01:02:10;;;;;;;0.30;0.20;;;;;;;6.32;100.00;101504.34;5062191;28;20444;-55
2021/03/28 01:04:50;;;;;;;0.30;0.20;;;;;;;6.23;100.00;101503.41;5061901;28;20441;-55
2021/03/28 01:07:34;;;;;;;0.30;0.20;;;;;;;6.36;100.00;101493.81;5062539;28;21052;-55
2021/03/28 01:10:22;;;;;;;0.30;0.20;;;;;;;6.18;100.00;101499.84;5051796;28;20449;-55
2021/03/28 01:13:26;;;;;;;0.30;0.20;;;;;;;6.14;100.00;101495.38;5060415;28;20837;-55
2021/03/28 01:16:27;;;;;;;0.30;0.20;;;;;;;6.48;100.00;101500.97;5061316;28;20973;-55
2021/03/28 01:19:24;;;;;;;0.30;0.20;;;;;;;6.52;100.00;101498.34;5061577;28;20458;-55
2021/03/28 01:22:08;;;;;;;0.30;0.20;;;;;;;6.58;100.00;101501.91;5063474;28;20542;-55
2021/03/28 01:24:57;;;;;;;0.30;0.20;;;;;;;6.59;100.00;101503.69;5050009;28;20454;-55
2021/03/28 01:27:30;;;;;;;0.70;0.70;;;;;;;6.75;100.00;101510.84;5061490;28;20473;-55
2021/03/28 01:30:13;;;;;;;0.30;0.20;;;;;;;6.70;100.00;101500.22;5063354;28;20447;-55
2021/03/28 01:32:49;;;;;;;0.30;0.20;;;;;;;6.74;100.00;101502.03;5049802;28;20846;-55
2021/03/28 01:35:24;;;;;;;0.30;0.20;;;;;;;6.78;100.00;101501.16;5061309;28;20499;-55
2021/03/28 01:38:07;;;;;;;0.30;0.20;;;;;;;6.78;100.00;101505.56;5064704;28;20466;-55
2021/03/28 01:40:46;;;;;;;0.30;0.20;;;;;;;6.70;100.00;101497.59;5047986;28;20438;-55
2021/03/28 01:43:48;;;;;;;0.30;0.20;;;;;;;6.75;100.00;101497.63;5061798;28;20435;-54
2021/03/28 01:46:44;;;;;;;0.30;0.20;;;;;;;6.71;100.00;101496.69;5057177;28;20459;-55
2021/03/28 01:49:45;;;;;;;0.30;0.20;;;;;;;6.58;100.00;101492.25;5055838;28;20997;-55
2021/03/28 01:52:19;;;;;;;0.30;0.20;;;;;;;6.62;100.00;101487.84;5056179;28;20518;-55
2021/03/28 01:54:57;;;;;;;0.30;0.20;;;;;;;6.80;100.00;101493.25;5061016;28;20524;-55
2021/03/28 01:57:38;;;;;;;0.30;0.20;;;;;;;6.66;100.00;101497.56;5062547;28;20463;-55
2021/03/28 02:00:30;;;;;;;0.30;0.20;;;;;;;6.61;100.00;101496.66;5049327;28;20853;-55
2021/03/28 02:03:32;;;;;;;0.30;0.20;;;;;;;6.65;100.00;101488.75;5061072;28;20851;-55
2021/03/28 02:06:25;;;;;;;0.30;0.20;;;;;;;6.72;100.00;101493.22;5061047;28;20435;-55
2021/03/28 02:09:26;;;;;;;0.30;0.20;;;;;;;6.62;100.00;101491.38;5061456;28;20563;-55
2021/03/28 02:12:20;;;;;;;0.30;0.20;;;;;;;6.68;100.00;101490.53;5056063;28;20438;-55
2021/03/28 02:15:01;;;;;;;0.30;0.20;;;;;;;6.65;100.00;101499.31;5066222;28;20933;-55
2021/03/28 02:17:42;;;;;;;0.30;0.20;;;;;;;6.76;100.00;101500.28;5066165;28;20463;-55
2021/03/28 02:20:37;;;;;;;0.30;0.20;;;;;;;6.93;100.00;101497.75;5067363;28;20438;-55
2021/03/28 02:23:29;;;;;;;0.30;0.20;;;;;;;6.97;100.00;101499.50;5064655;28;20442;-55
2021/03/28 02:26:05;;;;;;;0.30;0.20;;;;;;;7.06;100.00;101498.69;5066373;28;20454;-55
2021/03/28 02:29:14;;;;;;;0.30;0.20;;;;;;;7.03;100.00;101486.34;5067894;28;20485;-55
2021/03/28 02:32:08;;;;;;;0.30;0.20;;;;;;;7.00;100.00;101485.47;5074281;28;20496;-55
2021/03/28 02:34:53;;;;;;;0.30;0.20;;;;;;;7.01;100.00;101487.22;5063336;28;20454;-55
2021/03/28 02:37:47;;;;;;;0.30;0.20;;;;;;;6.89;100.00;101477.47;5067254;28;20520;-55
2021/03/28 02:40:27;;;;;;;0.30;0.20;;;;;;;6.83;100.00;101478.28;5048952;28;20461;-55
2021/03/28 02:43:31;;;;;;;0.30;0.20;;;;;;;6.79;100.00;101481.81;5061382;28;20442;-55
2021/03/28 02:46:29;;;;;;;0.30;0.20;;;;;;;6.87;100.00;101489.78;5053917;28;20852;-56
2021/03/28 02:49:12;;;;;;;0.30;0.20;;;;;;;6.93;100.00;101489.81;5045193;28;20499;-55
2021/03/28 02:51:54;;;;;;;0.30;0.20;;;;;;;6.89;100.00;101489.78;5055039;28;20450;-55
2021/03/28 02:54:52;;;;;;;0.30;0.20;;;;;;;6.85;100.00;101491.50;5060724;28;20810;-55
2021/03/28 02:57:49;;;;;;;0.30;0.20;;;;;;;6.77;100.00;101494.13;5055117;28;20482;-55
2021/03/28 03:00:46;;;;;;;0.30;0.20;;;;;;;6.83;100.00;101485.34;5064861;28;20454;-55
2021/03/28 03:03:17;;;;;;;0.30;0.20;;;;;;;6.61;100.00;101479.06;5065397;28;20449;-55
2021/03/28 03:05:58;;;;;;;0.30;0.10;;;;;;;6.79;100.00;101481.81;5066468;28;20439;-55
2021/03/28 03:08:40;;;;;;;0.30;0.20;;;;;;;6.63;100.00;101484.34;5062155;28;20990;-55
2021/03/28 03:11:21;;;;;;;0.30;0.10;;;;;;;6.63;100.00;101490.50;5055076;28;20450;-55
2021/03/28 03:13:53;;;;;;;0.47;0.47;;;;;;;6.62;100.00;101482.56;5066356;28;20438;-56
2021/03/28 03:16:23;;;;;;;0.30;0.10;;;;;;;6.56;100.00;101480.75;5060502;28;20446;-55
2021/03/28 03:19:07;;;;;;;0.30;0.20;;;;;;;6.41;100.00;101478.88;5059731;28;20829;-55
2021/03/28 03:21:52;;;;;;;0.30;0.20;;;;;;;6.48;100.00;101474.56;5062283;28;20446;-55
2021/03/28 03:24:37;;;;;;;0.30;0.20;;;;;;;6.31;100.00;101486.75;5046592;28;20511;-55
2021/03/28 03:27:41;;;;;;;0.30;0.20;;;;;;;6.14;100.00;101492.75;5059586;28;20442;-55
2021/03/28 03:30:42;;;;;;;0.30;0.20;;;;;;;6.08;100.00;101489.19;5059607;28;20508;-55
2021/03/28 03:33:27;;;;;;;0.30;0.20;;;;;;;6.16;100.00;101492.75;5059859;28;20446;-55
2021/03/28 03:36:12;;;;;;;0.30;0.20;;;;;;;6.06;100.00;101490.94;5050108;28;20438;-55
2021/03/28 03:39:01;;;;;;;0.30;0.20;;;;;;;6.01;100.00;101498.78;5058679;28;20454;-55
2021/03/28 03:41:39;;;;;;;0.30;0.10;;;;;;;5.87;100.00;101506.53;5059069;28;20458;-55
2021/03/28 03:44:49;;;;;;;0.30;0.20;;;;;;;5.75;100.00;101508.16;5063984;28;20455;-55
2021/03/28 03:47:33;;;;;;;0.30;0.20;;;;;;;6.37;100.00;101500.00;5047941;28;20473;-55
2021/03/28 03:50:09;;;;;;;0.30;0.20;;;;;;;6.12;100.00;101502.41;5058978;28;20438;-55
2021/03/28 03:52:55;;;;;;;0.30;0.20;;;;;;;5.90;100.00;101500.47;5060445;28;20454;-55
2021/03/28 03:55:39;;;;;;;0.30;0.20;;;;;;;5.96;100.00;101500.50;5048286;28;20446;-55
2021/03/28 03:58:08;;;;;;;0.30;0.20;;;;;;;5.61;100.00;101508.88;5057606;28;20993;-55
2021/03/28 04:00:52;;;;;;;0.30;0.20;;;;;;;5.56;100.00;101515.88;5061450;28;20450;-55
2021/03/28 04:03:28;;;;;;;0.30;0.20;;;;;;;5.20;100.00;101511.03;5045628;28;20449;-55
2021/03/28 04:06:09;;;;;;;0.30;0.20;;;;;;;5.27;100.00;101514.63;5058751;28;20451;-55
2021/03/28 04:08:55;;;;;;;0.30;0.20;;;;;;;5.09;100.00;101509.13;5061678;28;20915;-55
2021/03/28 04:11:42;;;;;;;0.30;0.20;;;;;;;5.06;100.00;101513.47;5065611;28;20442;-55
2021/03/28 04:14:42;;;;;;;0.50;0.50;;;;;;;4.81;100.00;101521.91;5054099;28;20446;-55
2021/03/28 04:17:30;;;;;;;0.30;0.20;;;;;;;4.63;100.00;101516.34;5058455;28;21066;-55
2021/03/28 04:20:09;;;;;;;0.30;0.20;;;;;;;4.48;100.00;101519.63;5053454;28;20503;-55
2021/03/28 04:23:00;;;;;;;0.30;0.20;;;;;;;4.55;100.00;101518.88;5058633;28;20853;-55
2021/03/28 04:25:37;;;;;;;0.30;0.20;;;;;;;4.50;100.00;101523.16;5059014;28;20455;-55
2021/03/28 04:28:17;;;;;;;0.30;0.20;;;;;;;4.49;100.00;101521.41;5062271;28;20513;-55
2021/03/28 04:30:56;;;;;;;0.30;0.20;;;;;;;4.30;100.00;101519.34;5065588;28;20529;-54
2021/03/28 04:33:37;;;;;;;0.30;0.20;;;;;;;4.07;100.00;101513.69;5065561;28;20446;-55
2021/03/28 04:36:11;;;;;;;0.30;0.20;;;;;;;4.01;100.00;101514.47;5063494;28;20446;-55
2021/03/28 04:39:02;;;;;;;0.30;0.20;;;;;;;3.85;100.00;101518.56;5064117;28;20540;-55
2021/03/28 04:41:55;;;;;;;0.30;0.20;;;;;;;3.94;100.00;101515.19;5065428;28;20468;-55
2021/03/28 04:44:47;;;;;;;0.30;0.20;;;;;;;3.78;100.00;101511.41;5063372;28;20931;-55
2021/03/28 04:47:26;;;;;;;0.30;0.20;;;;;;;3.74;100.00;101516.59;5064886;28;20478;-55
2021/03/28 04:50:22;;;;;;;0.30;0.20;;;;;;;3.66;100.00;101526.94;5057863;28;21024;-55
2021/03/28 04:53:40;;;;;;;0.30;0.20;;;;;;;3.64;100.00;101520.78;5058341;28;20450;-55
2021/03/28 04:56:12;;;;;;;0.30;0.20;;;;;;;3.51;100.00;101521.38;5048581;28;20498;-55
2021/03/28 04:59:09;;;;;;;0.30;0.20;;;;;;;3.41;100.00;101529.94;5063228;28;20930;-55
2021/03/28 05:02:08;;;;;;;0.30;0.20;;;;;;;3.37;100.00;101528.09;5065407;28;20528;-55
2021/03/28 05:05:07;;;;;;;0.30;0.20;;;;;;;3.25;100.00;101534.00;5055560;28;20457;-55
2021/03/28 05:08:01;;;;;;;0.30;0.20;;;;;;;3.42;100.00;101536.97;5057972;28;20475;-55
2021/03/28 05:11:08;;;;;;;0.30;0.20;;;;;;;3.25;100.00;101532.25;5058985;28;20933;-55
2021/03/28 05:14:18;;;;;;;0.30;0.10;;;;;;;3.17;100.00;101535.59;5054494;28;20862;-55
2021/03/28 05:17:11;;;;;;;0.30;0.20;;;;;;;3.24;100.00;101551.50;5064761;28;20496;-55
2021/03/28 05:20:02;;;;;;;0.30;0.10;;;;;;;3.15;100.00;101547.78;5051003;28;20814;-55
2021/03/28 05:22:51;;;;;;;0.30;0.20;;;;;;;3.14;100.00;101551.25;5061870;28;20580;-55
2021/03/28 05:25:41;;;;;;;0.30;0.20;;;;;;;3.13;100.00;101550.38;5060736;28;20446;-55
2021/03/28 05:28:29;;;;;;;0.30;0.20;;;;;;;3.27;100.00;101548.94;5064403;28;20493;-55
2021/03/28 05:31:39;;;;;;;0.30;0.20;;;;;;;3.40;100.00;101555.34;5042437;28;20457;-55
2021/03/28 05:34:23;;;;;;;0.30;0.20;;;;;;;3.33;100.00;101563.06;5068355;28;20443;-55
2021/03/28 05:37:17;;;;;;;0.30;0.20;;;;;;;3.24;100.00;101564.63;5070496;28;20491;-55
2021/03/28 05:40:29;;;;;;;0.30;0.20;;;;;;;3.68;100.00;101556.78;5061954;28;20489;-55
2021/03/28 05:43:16;;;;;;;0.30;0.20;;;;;;;3.75;100.00;101552.53;5060439;28;20926;-55
2021/03/28 05:46:17;;;;;;;0.30;0.30;;;;;;;3.79;100.00;101550.00;5065821;28;21000;-55
2021/03/28 05:49:33;;;;;;;0.30;0.20;;;;;;;3.98;100.00;101553.88;5046517;28;20497;-55
2021/03/28 05:52:18;;;;;;;0.30;0.20;;;;;;;4.00;100.00;101546.91;5045348;28;20808;-55
2021/03/28 05:54:53;;;;;;;0.30;0.20;;;;;;;4.13;100.00;101545.38;5059853;28;20454;-55
2021/03/28 05:57:56;;;;;;;0.30;0.20;;;;;;;4.05;100.00;101547.84;5063721;28;20520;-55
2021/03/28 06:00:54;;;;;;;0.30;0.10;;;;;;;4.23;100.00;101557.81;5053379;28;20551;-55
2021/03/28 06:03:44;;;;;;;0.30;0.20;;;;;;;4.34;100.00;101577.31;5047669;28;20461;-55
2021/03/28 06:06:29;;;;;;;2.57;1.20;;;;;;;4.41;100.00;101571.31;5061081;28;20441;-55
2021/03/28 06:09:16;;;;;;;0.30;0.20;;;;;;;4.41;100.00;101579.22;5062122;28;20847;-55
2021/03/28 06:12:05;;;;;;;0.30;0.10;;;;;;;4.49;100.00;101579.31;5052697;28;20460;-55
2021/03/28 06:14:46;;;;;;;0.30;0.20;;;;;;;4.92;100.00;101575.63;5060940;28;20446;-55
2021/03/28 06:18:03;;;;;;;0.30;0.20;;;;;;;4.73;100.00;101573.59;5060760;28;20463;-55
2021/03/28 06:20:59;;;;;;;0.30;0.20;;;;;;;4.67;100.00;101573.50;5046573;28;21000;-55
2021/03/28 06:23:49;;;;;;;0.30;0.10;;;;;;;4.82;100.00;101586.91;5062058;28;20932;-55
2021/03/28 06:26:19;;;;;;;0.30;0.20;;;;;;;4.76;100.00;101586.78;5050444;28;20453;-55
2021/03/28 06:29:15;;;;;;;0.30;0.20;;;;;;;4.81;100.00;101595.69;5060327;28;20494;-54
2021/03/28 06:32:06;;;;;;;0.30;0.10;;;;;;;4.85;100.00;101600.13;5060985;28;20997;-54
2021/03/28 06:34:57;;;;;;;0.30;0.10;;;;;;;5.12;100.00;101609.31;5052905;28;21003;-54
2021/03/28 06:37:51;;;;;;;0.30;0.10;;;;;;;5.10;100.00;101608.41;5059925;28;20461;-54
2021/03/28 06:40:42;;;;;;;0.30;0.17;;;;;;;4.95;100.00;101611.69;5059962;28;20438;-54
2021/03/28 06:43:28;;;;;;;0.30;0.20;;;;;;;5.01;100.00;101609.13;5059987;28;20451;-54
2021/03/28 06:46:16;;;;;;;0.30;0.10;;;;;;;5.18;100.00;101612.91;5061738;28;20839;-54
2021/03/28 06:49:20;;;;;;;0.30;0.20;;;;;;;5.33;100.00;101617.50;5045699;28;20501;-54
2021/03/28 06:52:11;;;;;;;0.30;0.20;;;;;;;5.51;100.00;101628.34;5069189;28;20524;-54
2021/03/28 06:55:08;;;;;;;0.30;0.10;;;;;;;5.81;100.00;101632.22;5066009;28;20449;-55
2021/03/28 06:58:08;;;;;;;0.30;0.20;;;;;;;5.90;100.00;101630.63;5073320;22;20492;-55
2021/03/28 07:00:57;;;;;;;0.30;0.20;;;;;;;6.11;100.00;101624.69;5033681;28;20487;-54
2021/03/28 07:03:41;;;;;;;0.30;0.20;;;;;;;6.29;100.00;101631.03;5017207;28;20507;-54
2021/03/28 07:06:29;;;;;;;0.60;0.60;;;;;;;6.58;100.00;101626.03;4999866;28;20583;-54
2021/03/28 07:09:21;;;;;;;0.30;0.10;;;;;;;6.81;100.00;101624.50;5002809;28;20904;-54
2021/03/28 07:11:52;;;;;;;0.30;0.20;;;;;;;7.36;100.00;101617.84;4990522;28;20884;-54
2021/03/28 07:14:55;;;;;;;0.30;0.20;;;;;;;7.17;100.00;101617.72;5010962;28;20452;-54
2021/03/28 07:18:16;;;;;;;1.13;1.03;;;;;;;7.23;100.00;101623.94;5000909;28;20499;-54
2021/03/28 07:20:50;;;;;;;0.30;0.20;;;;;;;7.35;99.88;101631.94;4991128;28;20978;-54
2021/03/28 07:23:54;;;;;;;0.30;0.20;;;;;;;7.13;100.00;101632.69;5002973;28;20465;-54
2021/03/28 07:26:42;;;;;;;0.30;0.20;;;;;;;7.45;99.23;101632.03;5012169;28;20892;-54
2021/03/28 07:29:30;;;;;;;0.30;0.20;;;;;;;7.59;98.49;101632.97;5000071;28;20497;-55
2021/03/28 07:32:02;;;;;;;1.23;1.23;;;;;;;7.89;98.39;101633.09;5000357;28;20552;-54
2021/03/28 07:34:43;;;;;;;0.30;0.20;;;;;;;7.90;97.32;101629.59;5012407;28;20445;-54
2021/03/28 07:37:41;;;;;;;0.30;0.20;;;;;;;8.26;96.64;101626.19;5011880;28;20853;-55
2021/03/28 07:40:07;;;;;;;0.30;0.20;;;;;;;8.19;95.42;101629.69;4998812;28;20960;-55
2021/03/28 07:42:46;;;;;;;0.30;0.20;;;;;;;8.58;94.66;101634.22;5003962;28;20462;-55
2021/03/28 07:45:44;;;;;;;0.30;0.20;;;;;;;8.31;93.96;101636.78;5006638;28;20456;-55
2021/03/28 07:48:29;;;;;;;0.30;0.20;;;;;;;8.83;92.88;101642.19;5001814;28;20495;-55
2021/03/28 07:51:23;;;;;;;0.30;0.20;;;;;;;8.71;92.47;101640.41;5004730;28;20460;-55
2021/03/28 07:54:27;;;;;;;0.30;0.20;;;;;;;8.69;91.82;101642.19;5005009;28;20442;-53
2021/03/28 07:57:08;;;;;;;0.30;0.20;;;;;;;9.02;91.68;101636.00;5003497;28;20448;-53
2021/03/28 07:59:56;;;;;;;0.30;0.20;;;;;;;8.90;91.98;101628.03;5008729;28;20454;-53
2021/03/28 08:02:28;;;;;;;0.30;0.20;;;;;;;9.31;91.80;101630.66;5005860;28;20484;-53
2021/03/28 08:05:01;;;;;;;0.33;0.20;;;;;;;9.41;90.66;101628.88;4987349;28;20464;-53
2021/03/28 08:07:49;;;;;;;0.30;0.20;;;;;;;9.02;91.26;101633.34;5011837;28;20583;-53
2021/03/28 08:10:45;;;;;;;0.90;0.87;;;;;;;9.08;91.79;101641.31;5002797;28;20528;-53
2021/03/28 08:13:33;;;;;;;0.30;0.20;;;;;;;9.58;89.27;101642.97;5003977;28;20927;-53
2021/03/28 08:16:14;;;;;;;0.30;0.20;;;;;;;9.58;88.84;101627.03;5006987;28;20557;-53
2021/03/28 08:19:14;;;;;;;0.30;0.10;;;;;;;9.81;89.21;101624.31;5011483;28;20457;-53
2021/03/28 08:22:36;;;;;;;0.30;0.20;;;;;;;10.09;88.83;101620.66;4997650;28;20974;-53
2021/03/28 08:25:14;;;;;;;0.30;0.20;;;;;;;10.44;86.41;101626.69;4992156;28;20473;-54
2021/03/28 08:27:51;;;;;;;0.30;0.20;;;;;;;10.20;86.45;101623.25;5003228;28;20480;-54
2021/03/28 08:30:38;;;;;;;0.30;0.20;;;;;;;10.30;87.64;101627.66;4998686;28;20543;-53
2021/03/28 08:33:26;;;;;;;0.30;0.20;;;;;;;10.74;86.40;101620.28;4978074;28;20485;-54
2021/03/28 08:36:27;;;;;;;0.30;0.20;;;;;;;10.86;84.69;101618.41;4989012;28;20469;-53
2021/03/28 08:39:15;;;;;;;0.30;0.20;;;;;;;11.05;81.40;101620.88;4992083;28;20470;-54
2021/03/28 08:42:09;;;;;;;0.30;0.20;;;;;;;11.30;82.44;101617.09;5006323;28;20834;-53
2021/03/28 08:45:20;;;;;;;0.30;0.20;;;;;;;11.32;81.74;101619.75;5004719;28;20511;-53
2021/03/28 08:48:11;;;;;;;0.30;0.20;;;;;;;11.60;81.02;101612.34;5007037;28;20836;-53
2021/03/28 08:51:12;;;;;;;0.30;0.20;;;;;;;11.55;79.49;101604.41;5007252;28;20469;-53
2021/03/28 08:53:55;;;;;;;0.30;0.20;;;;;;;11.95;79.68;101607.50;4989856;28;20463;-53
2021/03/28 08:56:25;;;;;;;0.30;0.20;;;;;;;12.06;79.75;101610.91;5003018;28;20922;-54
2021/03/28 08:59:19;;;;;;;0.30;0.20;;;;;;;12.14;79.02;101614.34;5006752;28;21001;-54
2021/03/28 09:02:07;;;;;;;0.30;0.20;;;;;;;12.13;78.74;101606.38;5005770;28;20459;-54
2021/03/28 09:04:39;;;;;;;0.30;0.20;;;;;;;12.25;76.38;101613.31;5002667;28;20452;-53
2021/03/28 09:07:33;;;;;;;0.30;0.20;;;;;;;12.58;74.58;101611.91;5005552;28;20449;-53
2021/03/28 09:10:00;;;;;;;0.30;0.20;;;;;;;12.64;74.03;101606.50;4992016;28;20492;-53
2021/03/28 09:12:32;;;;;;;0.30;0.20;;;;;;;12.33;74.38;101608.72;5014627;28;20807;-53
2021/03/28 09:15:04;;;;;;;0.30;0.20;;;;;;;12.75;75.08;101609.91;5008218;28;20453;-53
2021/03/28 09:18:02;;;;;;;0.30;0.20;;;;;;;13.01;73.76;101604.97;5012333;28;20487;-53
2021/03/28 09:20:40;;;;;;;0.40;0.30;;;;;;;12.83;72.79;101602.63;5009599;28;20479;-53
2021/03/28 09:23:52;;;;;;;0.30;0.20;;;;;;;13.10;71.95;101613.72;5004295;28;20452;-53
2021/03/28 09:26:28;;;;;;;0.30;0.20;;;;;;;13.03;71.52;101600.50;5014624;28;20831;-54
2021/03/28 09:29:33;;;;;;;0.30;0.20;;;;;;;13.20;71.54;101604.69;5002183;28;20496;-53
2021/03/28 09:32:12;;;;;;;0.30;0.20;;;;;;;13.25;71.80;101598.34;5002800;28;20449;-53
2021/03/28 09:35:09;;;;;;;0.30;0.20;;;;;;;13.48;70.00;101594.38;4996826;28;20461;-53
2021/03/28 09:37:39;;;;;;;0.30;0.20;;;;;;;13.66;69.61;101590.44;4990621;28;20469;-53
2021/03/28 09:40:22;;;;;;;0.30;0.20;;;;;;;13.64;68.86;101593.16;5002650;28;20818;-53
2021/03/28 09:43:21;;;;;;;0.30;0.20;;;;;;;13.83;68.52;101596.31;5003907;28;20817;-54
2021/03/28 09:46:25;;;;;;;0.30;0.20;;;;;;;13.83;65.24;101586.50;4994893;28;20484;-53
2021/03/28 09:49:29;;;;;;;0.30;0.20;;;;;;;13.88;64.89;101595.31;4989764;28;20488;-54
2021/03/28 09:52:26;;;;;;;0.30;0.20;;;;;;;13.98;64.96;101597.78;5007573;28;20829;-54
2021/03/28 09:55:13;;;;;;;0.30;0.20;;;;;;;14.10;65.59;101595.72;5010774;28;20449;-54
2021/03/28 09:58:10;;;;;;;0.30;0.20;;;;;;;14.13;65.56;101584.97;5008455;28;20499;-54
2021/03/28 10:00:57;;;;;;;0.30;0.20;;;;;;;14.57;64.75;101584.88;5013665;28;20480;-54
2021/03/28 10:03:44;;;;;;;0.30;0.20;;;;;;;14.59;64.41;101589.28;5008245;28;20456;-54
2021/03/28 10:06:19;;;;;;;0.30;0.20;;;;;;;14.48;63.65;101583.28;5010913;28;20453;-53
2021/03/28 10:08:50;;;;;;;0.40;0.20;;;;;;;14.46;63.55;101583.34;5006047;28;20519;-53
2021/03/28 10:11:17;;;;;;;0.30;0.20;;;;;;;14.18;63.35;101591.09;5000640;28;20464;-54
2021/03/28 10:14:04;;;;;;;0.60;0.60;;;;;;;14.72;63.81;101587.19;5003111;28;20457;-53
2021/03/28 10:16:36;;;;;;;0.40;0.20;;;;;;;15.02;61.48;101586.41;5007606;28;20523;-53
2021/03/28 10:19:18;;;;;;;0.30;0.20;;;;;;;15.13;60.10;101580.75;5002343;28;20462;-53
2021/03/28 10:22:25;;;;;;;0.30;0.20;;;;;;;14.82;60.27;101578.00;5014254;28;20444;-52
2021/03/28 10:25:03;;;;;;;0.30;0.20;;;;;;;14.81;59.52;101578.94;5013776;28;20448;-54
2021/03/28 10:27:57;;;;;;;0.30;0.20;;;;;;;14.69;59.12;101581.91;5001516;28;20475;-53
2021/03/28 10:30:42;;;;;;;0.30;0.20;;;;;;;14.57;59.22;101575.06;5005744;28;20560;-54
2021/03/28 10:33:08;;;;;;;0.30;0.20;;;;;;;14.16;60.04;101574.19;5013808;28;20445;-53
2021/03/28 10:35:53;;;;;;;0.30;0.20;;;;;;;13.99;60.43;101576.38;5002458;28;20463;-53
2021/03/28 10:38:29;;;;;;;0.30;0.20;;;;;;;13.99;61.22;101572.84;5000535;28;20477;-53
2021/03/28 10:41:21;;;;;;;0.30;0.20;;;;;;;13.74;61.12;101572.47;5003307;28;20460;-54
2021/03/28 10:44:00;;;;;;;0.30;0.20;;;;;;;13.75;60.71;101575.09;5008239;28;20470;-54
2021/03/28 10:46:26;;;;;;;0.30;0.20;;;;;;;14.09;59.45;101569.91;5005463;28;20452;-53
2021/03/28 10:49:30;;;;;;;0.40;0.40;;;;;;;14.48;59.37;101570.81;5005647;28;20504;-54
2021/03/28 10:52:25;;;;;;;1.13;1.13;;;;;;;14.45;58.81;101572.69;4987362;28;20457;-54
2021/03/28 10:55:27;;;;;;;0.30;0.20;;;;;;;14.43;58.85;101567.34;5013044;28;20498;-54
2021/03/28 10:58:15;;;;;;;0.30;0.20;;;;;;;14.81;57.52;101558.41;5001195;28;20559;-54
2021/03/28 11:01:07;;;;;;;0.33;0.27;;;;;;;15.20;58.39;101562.72;5013154;28;20448;-54
2021/03/28 11:03:43;;;;;;;0.30;0.20;;;;;;;15.19;54.69;101559.16;5005214;28;20457;-53
2021/03/28 11:06:43;;;;;;;0.30;0.20;;;;;;;15.49;56.79;101554.78;5007680;28;20488;-53
2021/03/28 11:09:15;;;;;;;0.30;0.20;;;;;;;15.87;55.94;101544.72;4994900;28;20493;-53
2021/03/28 11:12:00;;;;;;;0.40;0.20;;;;;;;15.93;53.15;101552.59;5012823;28;20568;-53
2021/03/28 11:14:59;;;;;;;0.40;0.20;;;;;;;15.92;51.29;101540.13;5012238;28;20464;-53
2021/03/28 11:17:47;;;;;;;0.40;0.20;;;;;;;15.86;53.27;101534.94;4997167;28;20473;-53
2021/03/28 11:20:32;;;;;;;0.40;0.20;;;;;;;15.66;54.82;101533.75;5011585;28;20448;-53
2021/03/28 11:23:16;;;;;;;0.40;0.20;;;;;;;15.84;53.89;101531.44;5004918;28;20457;-53
2021/03/28 11:25:58;;;;;;;0.57;0.57;;;;;;;16.08;52.43;101524.44;5006748;28;20458;-53
2021/03/28 11:28:36;;;;;;;0.40;0.20;;;;;;;15.88;51.66;101525.03;5011765;28;20993;-54
2021/03/28 11:31:24;;;;;;;0.40;0.20;;;;;;;16.22;52.63;101527.56;5012500;28;20480;-54
2021/03/28 11:34:12;;;;;;;0.40;0.20;;;;;;;16.16;51.80;101522.38;5000239;28;20445;-53
2021/03/28 11:36:55;;;;;;;0.40;0.20;;;;;;;15.95;52.92;101531.97;5000253;28;20464;-53
2021/03/28 11:39:33;;;;;;;0.40;0.30;;;;;;;16.21;51.41;101529.34;5002126;28;20469;-54
2021/03/28 11:42:27;;;;;;;0.40;0.30;;;;;;;16.20;51.37;101516.88;5005651;28;20460;-54
2021/03/28 11:45:00;;;;;;;0.40;0.20;;;;;;;16.14;51.52;101524.22;5002004;28;20957;-54
2021/03/28 11:47:32;;;;;;;0.40;0.20;;;;;;;15.77;51.58;101520.03;5003130;28;20483;-54
2021/03/28 11:50:13;;;;;;;0.40;0.30;;;;;;;15.60;52.44;101520.50;4999825;28;20568;-54
2021/03/28 11:53:00;;;;;;;0.40;0.20;;;;;;;15.92;51.84;101519.56;4993083;28;20858;-53
2021/03/28 11:55:46;;;;;;;0.40;0.20;;;;;;;15.72;51.89;101515.72;5017602;28;20444;-54
2021/03/28 11:58:12;;;;;;;0.40;0.30;;;;;;;15.89;50.86;101503.53;4999571;28;20484;-54
2021/03/28 12:00:46;;;;;;;0.40;0.20;;;;;;;15.72;51.19;101505.84;5001525;28;20896;-54
2021/03/28 12:03:18;;;;;;;0.33;0.20;;;;;;;15.70;52.25;101497.00;5008130;28;20481;-53
2021/03/28 12:05:53;;;;;;;0.40;0.20;;;;;;;15.70;51.40;101503.22;5006139;28;20444;-54
2021/03/28 12:08:23;;;;;;;0.40;0.20;;;;;;;16.07;50.87;101494.03;5000944;28;20477;-54
2021/03/28 12:10:50;;;;;;;0.40;0.20;;;;;;;15.68;51.65;101490.81;4999652;28;20453;-54
2021/03/28 12:13:30;;;;;;;0.40;0.20;;;;;;;15.63;51.60;101490.94;5004341;28;20453;-54
2021/03/28 12:16:00;;;;;;;0.40;0.20;;;;;;;15.86;51.49;101486.66;5009119;28;20471;-54
2021/03/28 12:18:29;;;;;;;0.30;0.20;;;;;;;15.89;50.64;101487.44;5011510;28;20535;-54
2021/03/28 12:20:58;;;;;;;0.40;0.20;;;;;;;16.05;50.12;101484.31;5007065;28;20450;-54
2021/03/28 12:23:27;;;;;;;0.40;0.30;;;;;;;16.13;50.24;101482.22;5012060;28;20453;-54
2021/03/28 12:26:05;;;;;;;0.30;0.20;;;;;;;16.00;50.00;101471.88;5015745;28;20476;-54
2021/03/28 12:29:02;;;;;;;0.40;0.20;;;;;;;16.28;50.53;101474.56;5003187;28;20472;-54
2021/03/28 12:31:38;;;;;;;0.40;0.20;;;;;;;16.14;49.93;101467.88;5005390;28;20860;-54
2021/03/28 12:34:07;;;;;;;0.40;0.20;;;;;;;16.36;49.94;101471.63;5015934;28;20484;-53
2021/03/28 12:36:55;;;;;;;0.40;0.20;;;;;;;16.23;50.19;101463.09;5015527;28;20551;-54
2021/03/28 12:39:44;;;;;;;0.40;0.20;;;;;;;16.27;50.91;101458.50;4998131;28;20880;-54
2021/03/28 12:42:17;;;;;;;0.40;0.20;;;;;;;16.28;49.46;101458.44;4988938;28;20495;-54
2021/03/28 12:44:51;;;;;;;0.40;0.20;;;;;;;16.29;49.96;101459.31;5003185;28;20453;-54
2021/03/28 12:47:27;;;;;;;0.40;0.20;;;;;;;16.17;49.58;101449.91;5013875;28;20464;-54
2021/03/28 12:50:03;;;;;;;0.40;0.20;;;;;;;16.14;50.76;101444.63;5003913;28;20492;-54
2021/03/28 12:52:46;;;;;;;0.40;0.20;;;;;;;16.21;52.72;101438.13;5009433;28;20461;-54
2021/03/28 12:55:29;;;;;;;0.53;0.53;;;;;;;16.35;50.77;101452.91;4995000;28;20544;-54
2021/03/28 12:58:08;;;;;;;0.30;0.20;;;;;;;16.45;50.67;101454.34;5025282;22;20507;-56